Hlavní strana
METAR-TAF:

METAR-TAF

Letiště :

Henderson City-County Airport

Henderson, Kentucky, Spojené státy americké

zeměpisná šířka: 37-49N, zeměpisná délka: 087-41W, výška: 117 m

Aktuální stav počasí

Zpráva byla vytvořena před 56 minutami, v 13:56 UTC
Jihojihozápadní vítr 5 kt
Teplota 4°C
Vlhkost vzduchu 75%
Tlak 1020 hPa
Viditelnost: 16.1 km
Jasno

METAR: KEHR 031356Z AUTO 21005KT 10SM CLR 04/00 A3012 RMK AO2 SLP201 T00390000

Čas: 08:52 (14:52 UTC)


TAF: chybějící

Stav a předpovědi počasí z více než 4 000 letišť (zprávy METAR a TAF).

Červené a žluté tečky na mapě představují dostupné meteorologické stanice.

Když kurzor umístíte na tečku, zobrazí se název stanice.

Pak kliknutím zobrazíte stav a předpověď počasí.

Chcete-li změnit mapu, kliknutím na zelené tlačítko se znaménkem +mapu přiblížíte, kliknutím na zelené tlačítko se znaménkem – mapu oddálíte a kliknutím na zelené šipky přejdete na sousední mapy.


METAR-TAF: